sensor_id;sensor_type;location;lat;lon;timestamp;P1;durP1;ratioP1;P2;durP2;ratioP2
19255;SDS011;9762;52.490;13.410;2023-02-01T00:01:12;17.47;;;3.90;;
19255;SDS011;9762;52.490;13.410;2023-02-01T00:03:37;20.40;;;4.40;;
19255;SDS011;9762;52.490;13.410;2023-02-01T00:06:03;19.10;;;4.13;;
19255;SDS011;9762;52.490;13.410;2023-02-01T00:08:29;21.23;;;4.87;;
19255;SDS011;9762;52.490;13.410;2023-02-01T00:11:02;23.33;;;4.80;;
19255;SDS011;9762;52.490;13.410;2023-02-01T00:13:30;20.80;;;4.80;;
19255;SDS011;9762;52.490;13.410;2023-02-01T00:16:07;18.40;;;4.17;;
19255;SDS011;9762;52.490;13.410;2023-02-01T00:18:37;26.73;;;5.40;;
19255;SDS011;9762;52.490;13.410;2023-02-01T00:21:03;20.80;;;4.30;;
19255;SDS011;9762;52.490;13.410;2023-02-01T00:23:33;12.40;;;4.47;;
19255;SDS011;9762;52.490;13.410;2023-02-01T00:26:03;22.10;;;4.20;;
19255;SDS011;9762;52.490;13.410;2023-02-01T00:28:30;14.77;;;4.37;;
19255;SDS011;9762;52.490;13.410;2023-02-01T00:30:59;18.93;;;4.23;;
19255;SDS011;9762;52.490;13.410;2023-02-01T00:33:26;22.83;;;5.33;;
19255;SDS011;9762;52.490;13.410;2023-02-01T00:36:00;20.47;;;5.00;;
19255;SDS011;9762;52.490;13.410;2023-02-01T00:38:27;20.60;;;4.90;;
19255;SDS011;9762;52.490;13.410;2023-02-01T00:40:53;12.30;;;3.97;;
19255;SDS011;9762;52.490;13.410;2023-02-01T00:43:20;17.17;;;4.50;;
19255;SDS011;9762;52.490;13.410;2023-02-01T00:45:46;13.03;;;4.00;;
19255;SDS011;9762;52.490;13.410;2023-02-01T00:48:12;16.93;;;4.07;;
19255;SDS011;9762;52.490;13.410;2023-02-01T00:50:41;14.63;;;3.73;;
19255;SDS011;9762;52.490;13.410;2023-02-01T00:53:08;17.97;;;4.70;;
19255;SDS011;9762;52.490;13.410;2023-02-01T00:55:34;12.00;;;4.03;;
19255;SDS011;9762;52.490;13.410;2023-02-01T00:58:00;13.83;;;3.80;;
19255;SDS011;9762;52.490;13.410;2023-02-01T01:00:26;12.70;;;4.50;;
19255;SDS011;9762;52.490;13.410;2023-02-01T01:02:51;15.63;;;4.17;;
19255;SDS011;9762;52.490;13.410;2023-02-01T01:05:17;15.83;;;3.90;;
19255;SDS011;9762;52.490;13.410;2023-02-01T01:07:42;11.37;;;3.53;;
19255;SDS011;9762;52.490;13.410;2023-02-01T01:10:08;18.47;;;4.47;;
19255;SDS011;9762;52.490;13.410;2023-02-01T01:12:34;14.00;;;3.27;;
19255;SDS011;9762;52.490;13.410;2023-02-01T01:15:00;9.90;;;3.13;;
19255;SDS011;9762;52.490;13.410;2023-02-01T01:17:25;7.63;;;3.57;;
19255;SDS011;9762;52.490;13.410;2023-02-01T01:19:51;12.27;;;3.43;;
19255;SDS011;9762;52.490;13.410;2023-02-01T01:22:16;15.07;;;3.97;;
19255;SDS011;9762;52.490;13.410;2023-02-01T01:24:42;13.33;;;3.53;;
19255;SDS011;9762;52.490;13.410;2023-02-01T01:27:08;12.93;;;3.20;;
19255;SDS011;9762;52.490;13.410;2023-02-01T01:29:34;11.57;;;4.13;;
19255;SDS011;9762;52.490;13.410;2023-02-01T01:31:59;14.83;;;3.67;;
19255;SDS011;9762;52.490;13.410;2023-02-01T01:34:25;14.43;;;3.90;;
19255;SDS011;9762;52.490;13.410;2023-02-01T01:36:51;16.33;;;4.40;;
19255;SDS011;9762;52.490;13.410;2023-02-01T01:39:16;16.63;;;4.40;;
19255;SDS011;9762;52.490;13.410;2023-02-01T01:41:42;14.60;;;3.50;;
19255;SDS011;9762;52.490;13.410;2023-02-01T01:44:55;13.63;;;3.23;;
19255;SDS011;9762;52.490;13.410;2023-02-01T01:47:11;14.23;;;3.67;;
19255;SDS011;9762;52.490;13.410;2023-02-01T01:49:39;13.63;;;4.13;;
19255;SDS011;9762;52.490;13.410;2023-02-01T01:52:05;12.77;;;4.10;;
19255;SDS011;9762;52.490;13.410;2023-02-01T01:54:36;24.17;;;4.60;;
19255;SDS011;9762;52.490;13.410;2023-02-01T01:57:09;23.07;;;3.87;;
19255;SDS011;9762;52.490;13.410;2023-02-01T01:59:39;16.70;;;4.00;;
19255;SDS011;9762;52.490;13.410;2023-02-01T02:02:07;14.33;;;4.20;;
19255;SDS011;9762;52.490;13.410;2023-02-01T02:04:34;16.17;;;4.20;;
19255;SDS011;9762;52.490;13.410;2023-02-01T02:07:03;18.57;;;4.10;;
19255;SDS011;9762;52.490;13.410;2023-02-01T02:09:33;24.07;;;4.13;;
19255;SDS011;9762;52.490;13.410;2023-02-01T02:11:59;15.83;;;4.10;;
19255;SDS011;9762;52.490;13.410;2023-02-01T02:14:24;14.83;;;3.97;;
19255;SDS011;9762;52.490;13.410;2023-02-01T02:33:58;17.47;;;3.70;;
19255;SDS011;9762;52.490;13.410;2023-02-01T02:36:37;14.13;;;3.57;;
19255;SDS011;9762;52.490;13.410;2023-02-01T02:39:41;17.87;;;4.47;;
19255;SDS011;9762;52.490;13.410;2023-02-01T02:45:37;15.57;;;3.93;;
19255;SDS011;9762;52.490;13.410;2023-02-01T02:48:46;13.60;;;4.37;;
19255;SDS011;9762;52.490;13.410;2023-02-01T02:51:21;19.23;;;4.30;;
19255;SDS011;9762;52.490;13.410;2023-02-01T02:54:19;14.53;;;3.50;;
19255;SDS011;9762;52.490;13.410;2023-02-01T02:57:08;17.60;;;4.13;;
19255;SDS011;9762;52.490;13.410;2023-02-01T02:59:55;20.60;;;4.27;;
19255;SDS011;9762;52.490;13.410;2023-02-01T03:02:42;16.73;;;4.23;;
19255;SDS011;9762;52.490;13.410;2023-02-01T03:05:31;20.83;;;4.90;;
19255;SDS011;9762;52.490;13.410;2023-02-01T03:08:05;17.87;;;4.40;;
19255;SDS011;9762;52.490;13.410;2023-02-01T03:16:19;18.43;;;4.10;;
19255;SDS011;9762;52.490;13.410;2023-02-01T03:21:26;18.43;;;4.30;;
19255;SDS011;9762;52.490;13.410;2023-02-01T03:24:00;19.17;;;4.00;;
19255;SDS011;9762;52.490;13.410;2023-02-01T03:26:33;12.10;;;4.43;;
19255;SDS011;9762;52.490;13.410;2023-02-01T03:29:17;18.83;;;5.20;;
19255;SDS011;9762;52.490;13.410;2023-02-01T03:31:47;15.03;;;3.93;;
19255;SDS011;9762;52.490;13.410;2023-02-01T03:34:13;17.10;;;4.40;;
19255;SDS011;9762;52.490;13.410;2023-02-01T03:36:44;22.07;;;4.27;;
19255;SDS011;9762;52.490;13.410;2023-02-01T03:39:34;27.57;;;4.30;;
19255;SDS011;9762;52.490;13.410;2023-02-01T03:42:05;19.67;;;4.67;;
19255;SDS011;9762;52.490;13.410;2023-02-01T03:45:12;15.27;;;4.07;;
19255;SDS011;9762;52.490;13.410;2023-02-01T03:47:45;16.17;;;3.90;;
19255;SDS011;9762;52.490;13.410;2023-02-01T03:50:15;16.20;;;4.30;;
19255;SDS011;9762;52.490;13.410;2023-02-01T03:52:44;17.30;;;4.47;;
19255;SDS011;9762;52.490;13.410;2023-02-01T03:55:16;18.80;;;4.80;;
19255;SDS011;9762;52.490;13.410;2023-02-01T03:57:59;17.43;;;4.50;;
19255;SDS011;9762;52.490;13.410;2023-02-01T04:00:29;19.10;;;4.17;;
19255;SDS011;9762;52.490;13.410;2023-02-01T04:02:55;19.40;;;4.07;;
19255;SDS011;9762;52.490;13.410;2023-02-01T04:05:21;18.40;;;4.40;;
19255;SDS011;9762;52.490;13.410;2023-02-01T04:07:47;21.67;;;5.20;;
19255;SDS011;9762;52.490;13.410;2023-02-01T04:10:13;21.33;;;4.73;;
19255;SDS011;9762;52.490;13.410;2023-02-01T04:12:38;19.10;;;3.93;;
19255;SDS011;9762;52.490;13.410;2023-02-01T04:15:05;17.93;;;4.57;;
19255;SDS011;9762;52.490;13.410;2023-02-01T04:17:31;14.23;;;4.20;;
19255;SDS011;9762;52.490;13.410;2023-02-01T04:19:56;16.63;;;4.53;;
19255;SDS011;9762;52.490;13.410;2023-02-01T04:22:22;19.67;;;4.30;;
19255;SDS011;9762;52.490;13.410;2023-02-01T04:24:47;18.60;;;4.83;;
19255;SDS011;9762;52.490;13.410;2023-02-01T04:27:13;21.40;;;5.07;;
19255;SDS011;9762;52.490;13.410;2023-02-01T04:29:39;18.07;;;5.13;;
19255;SDS011;9762;52.490;13.410;2023-02-01T04:32:04;18.30;;;4.57;;
19255;SDS011;9762;52.490;13.410;2023-02-01T04:34:30;17.10;;;4.40;;
19255;SDS011;9762;52.490;13.410;2023-02-01T04:36:56;15.07;;;3.80;;
19255;SDS011;9762;52.490;13.410;2023-02-01T04:39:22;20.77;;;4.13;;
19255;SDS011;9762;52.490;13.410;2023-02-01T04:41:47;18.17;;;4.60;;
19255;SDS011;9762;52.490;13.410;2023-02-01T04:44:14;19.40;;;4.40;;
19255;SDS011;9762;52.490;13.410;2023-02-01T04:46:41;20.03;;;4.50;;
19255;SDS011;9762;52.490;13.410;2023-02-01T04:49:10;15.93;;;3.93;;
19255;SDS011;9762;52.490;13.410;2023-02-01T04:51:37;18.07;;;4.80;;
19255;SDS011;9762;52.490;13.410;2023-02-01T04:54:03;16.80;;;4.57;;
19255;SDS011;9762;52.490;13.410;2023-02-01T04:56:29;19.27;;;4.33;;
19255;SDS011;9762;52.490;13.410;2023-02-01T04:58:55;17.73;;;4.13;;
19255;SDS011;9762;52.490;13.410;2023-02-01T05:01:21;17.93;;;4.97;;
19255;SDS011;9762;52.490;13.410;2023-02-01T05:03:47;22.53;;;4.90;;
19255;SDS011;9762;52.490;13.410;2023-02-01T05:06:13;19.93;;;5.23;;
19255;SDS011;9762;52.490;13.410;2023-02-01T05:08:38;17.97;;;4.00;;
19255;SDS011;9762;52.490;13.410;2023-02-01T05:11:04;16.90;;;4.53;;
19255;SDS011;9762;52.490;13.410;2023-02-01T05:13:30;14.77;;;4.87;;
19255;SDS011;9762;52.490;13.410;2023-02-01T05:16:14;14.23;;;3.80;;
19255;SDS011;9762;52.490;13.410;2023-02-01T05:18:39;27.43;;;5.50;;
19255;SDS011;9762;52.490;13.410;2023-02-01T05:21:05;13.70;;;3.93;;
19255;SDS011;9762;52.490;13.410;2023-02-01T05:23:31;20.07;;;4.50;;
19255;SDS011;9762;52.490;13.410;2023-02-01T05:25:59;18.00;;;4.40;;
19255;SDS011;9762;52.490;13.410;2023-02-01T05:28:26;13.30;;;4.20;;
19255;SDS011;9762;52.490;13.410;2023-02-01T05:30:52;21.73;;;4.93;;
19255;SDS011;9762;52.490;13.410;2023-02-01T05:33:18;16.03;;;4.73;;
19255;SDS011;9762;52.490;13.410;2023-02-01T05:35:43;23.20;;;5.90;;
19255;SDS011;9762;52.490;13.410;2023-02-01T05:38:09;14.63;;;4.53;;
19255;SDS011;9762;52.490;13.410;2023-02-01T05:40:35;18.33;;;4.93;;
19255;SDS011;9762;52.490;13.410;2023-02-01T05:43:00;18.00;;;4.67;;
19255;SDS011;9762;52.490;13.410;2023-02-01T05:45:26;13.40;;;4.30;;
19255;SDS011;9762;52.490;13.410;2023-02-01T05:47:52;19.27;;;4.63;;
19255;SDS011;9762;52.490;13.410;2023-02-01T05:50:17;15.90;;;4.47;;
19255;SDS011;9762;52.490;13.410;2023-02-01T05:52:43;22.10;;;4.83;;
19255;SDS011;9762;52.490;13.410;2023-02-01T05:55:09;22.30;;;4.93;;
19255;SDS011;9762;52.490;13.410;2023-02-01T05:57:34;16.90;;;4.43;;
19255;SDS011;9762;52.490;13.410;2023-02-01T06:00:00;18.53;;;5.07;;
19255;SDS011;9762;52.490;13.410;2023-02-01T06:02:26;25.00;;;4.73;;
19255;SDS011;9762;52.490;13.410;2023-02-01T06:04:52;15.50;;;4.53;;
19255;SDS011;9762;52.490;13.410;2023-02-01T06:07:18;21.57;;;4.80;;
19255;SDS011;9762;52.490;13.410;2023-02-01T06:09:43;17.27;;;5.10;;
19255;SDS011;9762;52.490;13.410;2023-02-01T06:12:09;14.07;;;4.60;;
19255;SDS011;9762;52.490;13.410;2023-02-01T06:14:35;20.97;;;4.97;;
19255;SDS011;9762;52.490;13.410;2023-02-01T06:17:02;20.33;;;4.33;;
19255;SDS011;9762;52.490;13.410;2023-02-01T06:19:27;18.70;;;5.13;;
19255;SDS011;9762;52.490;13.410;2023-02-01T06:21:53;18.47;;;4.50;;
19255;SDS011;9762;52.490;13.410;2023-02-01T06:24:19;21.40;;;4.60;;
19255;SDS011;9762;52.490;13.410;2023-02-01T06:26:44;19.73;;;4.67;;
19255;SDS011;9762;52.490;13.410;2023-02-01T06:29:10;22.13;;;5.27;;
19255;SDS011;9762;52.490;13.410;2023-02-01T06:31:36;15.50;;;4.63;;
19255;SDS011;9762;52.490;13.410;2023-02-01T06:34:01;17.03;;;4.37;;
19255;SDS011;9762;52.490;13.410;2023-02-01T06:36:28;17.00;;;4.40;;
19255;SDS011;9762;52.490;13.410;2023-02-01T06:38:53;15.47;;;4.00;;
19255;SDS011;9762;52.490;13.410;2023-02-01T06:41:21;19.20;;;4.47;;
19255;SDS011;9762;52.490;13.410;2023-02-01T06:43:47;15.17;;;4.37;;
19255;SDS011;9762;52.490;13.410;2023-02-01T06:46:13;17.00;;;4.20;;
19255;SDS011;9762;52.490;13.410;2023-02-01T06:48:39;17.10;;;4.97;;
19255;SDS011;9762;52.490;13.410;2023-02-01T06:51:05;17.27;;;4.33;;
19255;SDS011;9762;52.490;13.410;2023-02-01T06:53:31;20.03;;;4.47;;
19255;SDS011;9762;52.490;13.410;2023-02-01T06:55:58;22.00;;;4.97;;
19255;SDS011;9762;52.490;13.410;2023-02-01T06:58:27;14.17;;;4.10;;
19255;SDS011;9762;52.490;13.410;2023-02-01T07:00:54;18.07;;;4.70;;
19255;SDS011;9762;52.490;13.410;2023-02-01T07:03:20;19.17;;;4.47;;
19255;SDS011;9762;52.490;13.410;2023-02-01T07:05:46;17.13;;;4.30;;
19255;SDS011;9762;52.490;13.410;2023-02-01T07:08:11;13.23;;;4.80;;
19255;SDS011;9762;52.490;13.410;2023-02-01T07:10:37;22.47;;;5.47;;
19255;SDS011;9762;52.490;13.410;2023-02-01T07:13:03;16.10;;;4.90;;
19255;SDS011;9762;52.490;13.410;2023-02-01T07:15:29;16.53;;;5.40;;
19255;SDS011;9762;52.490;13.410;2023-02-01T07:17:55;18.10;;;5.40;;
19255;SDS011;9762;52.490;13.410;2023-02-01T07:20:21;14.17;;;4.13;;
19255;SDS011;9762;52.490;13.410;2023-02-01T07:22:46;19.63;;;3.73;;
19255;SDS011;9762;52.490;13.410;2023-02-01T07:25:12;15.53;;;4.43;;
19255;SDS011;9762;52.490;13.410;2023-02-01T07:27:37;16.00;;;4.67;;
19255;SDS011;9762;52.490;13.410;2023-02-01T07:30:03;17.90;;;4.17;;
19255;SDS011;9762;52.490;13.410;2023-02-01T07:32:30;17.80;;;5.00;;
19255;SDS011;9762;52.490;13.410;2023-02-01T07:34:56;19.23;;;4.43;;
19255;SDS011;9762;52.490;13.410;2023-02-01T07:37:22;19.43;;;4.40;;
19255;SDS011;9762;52.490;13.410;2023-02-01T07:39:49;17.70;;;4.13;;
19255;SDS011;9762;52.490;13.410;2023-02-01T07:42:15;17.47;;;4.10;;
19255;SDS011;9762;52.490;13.410;2023-02-01T07:44:41;13.60;;;5.00;;
19255;SDS011;9762;52.490;13.410;2023-02-01T07:47:07;14.90;;;4.10;;
19255;SDS011;9762;52.490;13.410;2023-02-01T07:49:32;15.63;;;4.83;;
19255;SDS011;9762;52.490;13.410;2023-02-01T07:51:58;15.87;;;4.83;;
19255;SDS011;9762;52.490;13.410;2023-02-01T07:54:24;14.90;;;4.37;;
19255;SDS011;9762;52.490;13.410;2023-02-01T07:56:49;14.27;;;4.17;;
19255;SDS011;9762;52.490;13.410;2023-02-01T07:59:15;13.70;;;4.17;;
19255;SDS011;9762;52.490;13.410;2023-02-01T08:01:41;13.77;;;4.30;;
19255;SDS011;9762;52.490;13.410;2023-02-01T08:04:07;14.23;;;4.07;;
19255;SDS011;9762;52.490;13.410;2023-02-01T08:06:37;14.63;;;4.80;;
19255;SDS011;9762;52.490;13.410;2023-02-01T08:09:03;17.33;;;4.87;;
19255;SDS011;9762;52.490;13.410;2023-02-01T08:11:30;18.97;;;8.13;;
19255;SDS011;9762;52.490;13.410;2023-02-01T08:13:55;12.47;;;4.40;;
19255;SDS011;9762;52.490;13.410;2023-02-01T08:16:21;11.13;;;4.60;;
19255;SDS011;9762;52.490;13.410;2023-02-01T08:18:48;28.13;;;11.57;;
19255;SDS011;9762;52.490;13.410;2023-02-01T08:21:16;20.77;;;9.37;;
19255;SDS011;9762;52.490;13.410;2023-02-01T08:23:44;13.10;;;5.57;;
19255;SDS011;9762;52.490;13.410;2023-02-01T08:28:43;27.00;;;13.67;;
19255;SDS011;9762;52.490;13.410;2023-02-01T08:31:12;9.87;;;5.00;;
19255;SDS011;9762;52.490;13.410;2023-02-01T08:33:42;16.37;;;8.70;;
19255;SDS011;9762;52.490;13.410;2023-02-01T08:36:09;20.80;;;13.73;;
19255;SDS011;9762;52.490;13.410;2023-02-01T08:38:36;23.83;;;14.23;;
19255;SDS011;9762;52.490;13.410;2023-02-01T08:41:10;16.30;;;7.10;;
19255;SDS011;9762;52.490;13.410;2023-02-01T08:43:38;10.10;;;3.83;;
19255;SDS011;9762;52.490;13.410;2023-02-01T08:46:04;10.27;;;4.33;;
19255;SDS011;9762;52.490;13.410;2023-02-01T08:48:30;11.63;;;4.60;;
19255;SDS011;9762;52.490;13.410;2023-02-01T08:50:57;8.60;;;4.50;;
19255;SDS011;9762;52.490;13.410;2023-02-01T08:53:22;9.27;;;3.63;;
19255;SDS011;9762;52.490;13.410;2023-02-01T08:55:48;12.70;;;4.40;;
19255;SDS011;9762;52.490;13.410;2023-02-01T08:58:14;9.63;;;3.93;;
19255;SDS011;9762;52.490;13.410;2023-02-01T09:00:41;8.47;;;4.03;;
19255;SDS011;9762;52.490;13.410;2023-02-01T09:03:10;7.63;;;3.17;;
19255;SDS011;9762;52.490;13.410;2023-02-01T09:05:36;7.73;;;2.53;;
19255;SDS011;9762;52.490;13.410;2023-02-01T09:08:03;10.83;;;3.50;;
19255;SDS011;9762;52.490;13.410;2023-02-01T09:10:29;5.17;;;2.53;;
19255;SDS011;9762;52.490;13.410;2023-02-01T09:12:54;5.07;;;2.40;;
19255;SDS011;9762;52.490;13.410;2023-02-01T09:15:20;4.93;;;2.80;;
19255;SDS011;9762;52.490;13.410;2023-02-01T09:17:46;5.17;;;2.37;;
19255;SDS011;9762;52.490;13.410;2023-02-01T09:20:11;8.13;;;2.50;;
19255;SDS011;9762;52.490;13.410;2023-02-01T09:22:37;4.73;;;2.73;;
19255;SDS011;9762;52.490;13.410;2023-02-01T09:25:03;8.33;;;2.60;;
19255;SDS011;9762;52.490;13.410;2023-02-01T09:27:29;3.67;;;1.97;;
19255;SDS011;9762;52.490;13.410;2023-02-01T09:29:55;5.07;;;2.50;;
19255;SDS011;9762;52.490;13.410;2023-02-01T09:32:20;6.03;;;3.37;;
19255;SDS011;9762;52.490;13.410;2023-02-01T09:34:48;5.70;;;2.80;;
19255;SDS011;9762;52.490;13.410;2023-02-01T09:37:14;5.63;;;2.67;;
19255;SDS011;9762;52.490;13.410;2023-02-01T09:39:40;3.50;;;1.87;;
19255;SDS011;9762;52.490;13.410;2023-02-01T09:48:09;5.67;;;3.10;;
19255;SDS011;9762;52.490;13.410;2023-02-01T09:50:39;3.33;;;1.50;;
19255;SDS011;9762;52.490;13.410;2023-02-01T09:53:18;2.63;;;1.57;;
19255;SDS011;9762;52.490;13.410;2023-02-01T09:55:58;4.10;;;1.40;;
19255;SDS011;9762;52.490;13.410;2023-02-01T09:58:33;1.93;;;1.57;;
19255;SDS011;9762;52.490;13.410;2023-02-01T10:01:03;2.30;;;1.70;;
19255;SDS011;9762;52.490;13.410;2023-02-01T10:03:35;4.37;;;1.60;;
19255;SDS011;9762;52.490;13.410;2023-02-01T10:17:03;3.50;;;1.77;;
19255;SDS011;9762;52.490;13.410;2023-02-01T10:19:48;3.77;;;1.70;;
19255;SDS011;9762;52.490;13.410;2023-02-01T10:22:32;2.97;;;1.53;;
19255;SDS011;9762;52.490;13.410;2023-02-01T10:25:26;4.03;;;1.50;;
19255;SDS011;9762;52.490;13.410;2023-02-01T10:28:04;2.77;;;1.53;;
19255;SDS011;9762;52.490;13.410;2023-02-01T10:30:31;7.57;;;2.57;;
19255;SDS011;9762;52.490;13.410;2023-02-01T10:33:15;3.07;;;1.60;;
19255;SDS011;9762;52.490;13.410;2023-02-01T10:35:41;4.17;;;1.77;;
19255;SDS011;9762;52.490;13.410;2023-02-01T10:38:26;5.40;;;2.10;;
19255;SDS011;9762;52.490;13.410;2023-02-01T10:40:53;3.53;;;1.93;;
19255;SDS011;9762;52.490;13.410;2023-02-01T10:43:25;17.93;;;7.90;;
19255;SDS011;9762;52.490;13.410;2023-02-01T10:45:51;8.10;;;4.53;;
19255;SDS011;9762;52.490;13.410;2023-02-01T10:48:17;16.97;;;6.70;;
19255;SDS011;9762;52.490;13.410;2023-02-01T10:53:22;21.27;;;11.77;;
19255;SDS011;9762;52.490;13.410;2023-02-01T10:55:54;29.60;;;15.93;;
19255;SDS011;9762;52.490;13.410;2023-02-01T11:01:00;8.33;;;6.83;;
19255;SDS011;9762;52.490;13.410;2023-02-01T11:06:17;14.17;;;8.80;;
19255;SDS011;9762;52.490;13.410;2023-02-01T11:08:50;8.13;;;4.77;;
19255;SDS011;9762;52.490;13.410;2023-02-01T11:11:18;6.97;;;2.90;;
19255;SDS011;9762;52.490;13.410;2023-02-01T11:13:53;8.03;;;4.47;;
19255;SDS011;9762;52.490;13.410;2023-02-01T11:16:34;8.17;;;5.10;;
19255;SDS011;9762;52.490;13.410;2023-02-01T11:19:02;7.87;;;3.57;;
19255;SDS011;9762;52.490;13.410;2023-02-01T11:21:28;4.87;;;3.00;;
19255;SDS011;9762;52.490;13.410;2023-02-01T11:23:54;9.37;;;4.43;;
19255;SDS011;9762;52.490;13.410;2023-02-01T11:26:25;9.73;;;5.43;;
19255;SDS011;9762;52.490;13.410;2023-02-01T11:29:03;8.30;;;3.70;;
19255;SDS011;9762;52.490;13.410;2023-02-01T11:31:32;6.40;;;2.90;;
19255;SDS011;9762;52.490;13.410;2023-02-01T11:34:00;9.00;;;3.87;;
19255;SDS011;9762;52.490;13.410;2023-02-01T11:36:46;7.70;;;3.10;;
19255;SDS011;9762;52.490;13.410;2023-02-01T11:42:03;7.33;;;3.70;;
19255;SDS011;9762;52.490;13.410;2023-02-01T11:44:36;6.53;;;2.63;;
19255;SDS011;9762;52.490;13.410;2023-02-01T11:50:09;5.47;;;3.20;;
19255;SDS011;9762;52.490;13.410;2023-02-01T11:55:51;8.97;;;3.30;;
19255;SDS011;9762;52.490;13.410;2023-02-01T11:58:25;10.93;;;3.20;;
19255;SDS011;9762;52.490;13.410;2023-02-01T12:09:05;6.87;;;2.63;;
19255;SDS011;9762;52.490;13.410;2023-02-01T12:20:34;7.80;;;2.50;;
19255;SDS011;9762;52.490;13.410;2023-02-01T12:23:44;8.07;;;2.93;;
19255;SDS011;9762;52.490;13.410;2023-02-01T12:37:03;6.97;;;3.80;;
19255;SDS011;9762;52.490;13.410;2023-02-01T12:39:37;7.13;;;3.33;;
19255;SDS011;9762;52.490;13.410;2023-02-01T12:42:16;7.33;;;4.43;;
19255;SDS011;9762;52.490;13.410;2023-02-01T12:44:57;8.60;;;3.30;;
19255;SDS011;9762;52.490;13.410;2023-02-01T12:47:51;5.13;;;3.43;;
19255;SDS011;9762;52.490;13.410;2023-02-01T12:53:15;17.83;;;4.70;;
19255;SDS011;9762;52.490;13.410;2023-02-01T12:55:47;8.63;;;3.93;;
19255;SDS011;9762;52.490;13.410;2023-02-01T13:01:11;13.33;;;7.37;;
19255;SDS011;9762;52.490;13.410;2023-02-01T13:03:38;17.00;;;8.87;;
19255;SDS011;9762;52.490;13.410;2023-02-01T13:06:10;9.23;;;5.07;;
19255;SDS011;9762;52.490;13.410;2023-02-01T13:08:51;12.60;;;4.63;;
19255;SDS011;9762;52.490;13.410;2023-02-01T13:11:34;9.77;;;4.03;;
19255;SDS011;9762;52.490;13.410;2023-02-01T13:16:59;7.80;;;3.13;;
19255;SDS011;9762;52.490;13.410;2023-02-01T13:22:44;10.33;;;2.70;;
19255;SDS011;9762;52.490;13.410;2023-02-01T13:25:26;7.77;;;3.03;;
19255;SDS011;9762;52.490;13.410;2023-02-01T13:28:02;10.30;;;4.00;;
19255;SDS011;9762;52.490;13.410;2023-02-01T13:41:10;8.97;;;2.77;;
19255;SDS011;9762;52.490;13.410;2023-02-01T13:43:50;6.60;;;2.40;;
19255;SDS011;9762;52.490;13.410;2023-02-01T13:46:17;4.20;;;2.60;;
19255;SDS011;9762;52.490;13.410;2023-02-01T13:48:50;8.37;;;2.47;;
19255;SDS011;9762;52.490;13.410;2023-02-01T13:51:28;10.47;;;2.97;;
19255;SDS011;9762;52.490;13.410;2023-02-01T13:54:03;10.43;;;3.03;;
19255;SDS011;9762;52.490;13.410;2023-02-01T13:56:32;8.73;;;2.73;;
19255;SDS011;9762;52.490;13.410;2023-02-01T14:21:17;22.33;;;12.13;;
19255;SDS011;9762;52.490;13.410;2023-02-01T14:24:02;27.97;;;11.30;;
19255;SDS011;9762;52.490;13.410;2023-02-01T14:26:46;17.70;;;8.00;;
19255;SDS011;9762;52.490;13.410;2023-02-01T14:29:19;18.17;;;7.43;;
19255;SDS011;9762;52.490;13.410;2023-02-01T14:31:58;13.43;;;5.40;;
19255;SDS011;9762;52.490;13.410;2023-02-01T14:42:49;14.47;;;5.13;;
19255;SDS011;9762;52.490;13.410;2023-02-01T14:47:46;13.20;;;6.63;;
19255;SDS011;9762;52.490;13.410;2023-02-01T14:58:09;12.13;;;4.33;;
19255;SDS011;9762;52.490;13.410;2023-02-01T15:00:54;11.10;;;3.53;;
19255;SDS011;9762;52.490;13.410;2023-02-01T15:03:24;7.97;;;2.83;;
19255;SDS011;9762;52.490;13.410;2023-02-01T15:05:57;6.03;;;2.97;;
19255;SDS011;9762;52.490;13.410;2023-02-01T15:08:27;8.33;;;2.80;;
19255;SDS011;9762;52.490;13.410;2023-02-01T15:10:56;8.30;;;2.80;;
19255;SDS011;9762;52.490;13.410;2023-02-01T15:13:26;5.37;;;2.03;;
19255;SDS011;9762;52.490;13.410;2023-02-01T15:15:59;5.17;;;2.00;;
19255;SDS011;9762;52.490;13.410;2023-02-01T15:18:34;3.20;;;2.40;;
19255;SDS011;9762;52.490;13.410;2023-02-01T15:21:01;7.63;;;1.87;;
19255;SDS011;9762;52.490;13.410;2023-02-01T15:23:27;4.30;;;2.40;;
19255;SDS011;9762;52.490;13.410;2023-02-01T15:25:53;22.13;;;12.43;;
19255;SDS011;9762;52.490;13.410;2023-02-01T15:28:20;14.87;;;7.87;;
19255;SDS011;9762;52.490;13.410;2023-02-01T15:30:54;9.80;;;5.17;;
19255;SDS011;9762;52.490;13.410;2023-02-01T15:33:25;5.00;;;2.83;;
19255;SDS011;9762;52.490;13.410;2023-02-01T15:38:35;3.93;;;3.63;;
19255;SDS011;9762;52.490;13.410;2023-02-01T15:41:05;6.17;;;3.20;;
19255;SDS011;9762;52.490;13.410;2023-02-01T15:44:02;7.47;;;5.67;;
19255;SDS011;9762;52.490;13.410;2023-02-01T15:46:40;3.97;;;3.77;;
19255;SDS011;9762;52.490;13.410;2023-02-01T15:51:49;6.70;;;5.30;;
19255;SDS011;9762;52.490;13.410;2023-02-01T15:54:19;3.43;;;2.87;;
19255;SDS011;9762;52.490;13.410;2023-02-01T15:57:04;3.10;;;2.80;;
19255;SDS011;9762;52.490;13.410;2023-02-01T15:59:31;3.03;;;2.73;;
19255;SDS011;9762;52.490;13.410;2023-02-01T16:02:22;2.73;;;2.47;;
19255;SDS011;9762;52.490;13.410;2023-02-01T16:04:54;3.67;;;2.20;;
19255;SDS011;9762;52.490;13.410;2023-02-01T16:07:30;1.40;;;1.30;;
19255;SDS011;9762;52.490;13.410;2023-02-01T16:09:59;1.63;;;1.43;;
19255;SDS011;9762;52.490;13.410;2023-02-01T16:12:46;1.97;;;1.37;;
19255;SDS011;9762;52.490;13.410;2023-02-01T16:15:12;1.67;;;1.40;;
19255;SDS011;9762;52.490;13.410;2023-02-01T16:17:37;1.40;;;1.30;;
19255;SDS011;9762;52.490;13.410;2023-02-01T16:20:03;0.90;;;0.90;;
19255;SDS011;9762;52.490;13.410;2023-02-01T16:22:29;1.33;;;1.10;;
19255;SDS011;9762;52.490;13.410;2023-02-01T16:24:55;1.27;;;1.23;;
19255;SDS011;9762;52.490;13.410;2023-02-01T16:27:21;1.17;;;1.17;;
19255;SDS011;9762;52.490;13.410;2023-02-01T16:29:47;1.07;;;1.07;;
19255;SDS011;9762;52.490;13.410;2023-02-01T16:32:15;1.73;;;1.63;;
19255;SDS011;9762;52.490;13.410;2023-02-01T16:34:43;12.97;;;8.00;;
19255;SDS011;9762;52.490;13.410;2023-02-01T16:37:14;27.07;;;19.73;;
19255;SDS011;9762;52.490;13.410;2023-02-01T16:39:46;3.60;;;3.30;;
19255;SDS011;9762;52.490;13.410;2023-02-01T16:42:12;1.97;;;1.87;;
19255;SDS011;9762;52.490;13.410;2023-02-01T16:44:39;1.43;;;1.27;;
19255;SDS011;9762;52.490;13.410;2023-02-01T16:47:12;7.23;;;2.93;;
19255;SDS011;9762;52.490;13.410;2023-02-01T16:49:43;0.90;;;0.90;;
19255;SDS011;9762;52.490;13.410;2023-02-01T16:52:12;2.30;;;0.93;;
19255;SDS011;9762;52.490;13.410;2023-02-01T16:54:41;0.90;;;0.90;;
19255;SDS011;9762;52.490;13.410;2023-02-01T16:57:10;0.93;;;0.93;;
19255;SDS011;9762;52.490;13.410;2023-02-01T16:59:38;1.67;;;1.17;;
19255;SDS011;9762;52.490;13.410;2023-02-01T17:02:04;2.23;;;1.27;;
19255;SDS011;9762;52.490;13.410;2023-02-01T17:04:30;2.10;;;1.10;;
19255;SDS011;9762;52.490;13.410;2023-02-01T17:06:55;1.10;;;1.10;;
19255;SDS011;9762;52.490;13.410;2023-02-01T17:09:23;2.47;;;1.97;;
19255;SDS011;9762;52.490;13.410;2023-02-01T17:11:50;2.67;;;2.20;;
19255;SDS011;9762;52.490;13.410;2023-02-01T17:14:17;1.87;;;1.77;;
19255;SDS011;9762;52.490;13.410;2023-02-01T17:16:46;5.70;;;2.77;;
19255;SDS011;9762;52.490;13.410;2023-02-01T17:19:14;13.93;;;10.83;;
19255;SDS011;9762;52.490;13.410;2023-02-01T17:21:44;5.70;;;5.20;;
19255;SDS011;9762;52.490;13.410;2023-02-01T17:24:16;23.40;;;17.30;;
19255;SDS011;9762;52.490;13.410;2023-02-01T17:26:43;21.97;;;15.43;;
19255;SDS011;9762;52.490;13.410;2023-02-01T17:29:09;31.57;;;21.77;;
19255;SDS011;9762;52.490;13.410;2023-02-01T17:31:37;35.40;;;24.40;;
19255;SDS011;9762;52.490;13.410;2023-02-01T17:34:04;18.43;;;11.67;;
19255;SDS011;9762;52.490;13.410;2023-02-01T17:36:30;24.63;;;17.77;;